Valley, United Kingdom
Current Conditions -  °F | °C
As of 4:50 PM on Wednesday 26 Nov 2014 (Local Time) from EGOV Reporting Station
Haze Haze  
Wind Chill:   Ceiling: 3800
Heat Index:   Visibility: 5mi
Dew Point:   Wind: 2mph
Humidity: 87%   Direction: 60°ENE
Pressure: 29.83"   Gusts: NA
Location:  53.25°N, 4.53°W
Report Text: EGOV 261650Z 06002KT 8000 HZ BKN038 08/06 Q1010 BLU BECMG 7000 HZ WHT
Loading
Personal Weather Stations






























Interactive Weather Map New forecast layout! Learn more

10-Day Weather Forecast

Advertisements
Track Severe Weather on mobile